Time;durP1;ratioP1;P1;durP2;ratioP2;P2;SDS_P1;SDS_P2;PMS_P1;PMS_P2;Temp;Humidity;BMP_temperature;BMP_pressure;BME280_temperature;BME280_humidity;BME280_pressure;Samples;Min_cycle;Max_cycle;Signal;HPM_P1;HPM_P2
2022/10/11 00:01:43;;;;;;;14.95;10.75;;;;;;;13.38;100.00;100958.41;5076837;28;20195;-76
2022/10/11 00:04:10;;;;;;;20.95;11.55;;;;;;;13.38;100.00;100964.69;5076137;28;20682;-77
2022/10/11 00:06:37;;;;;;;23.63;11.60;;;;;;;13.34;100.00;100964.00;5076574;28;21381;-77
2022/10/11 00:09:04;;;;;;;17.38;10.40;;;;;;;13.33;100.00;100966.75;5077158;28;20287;-76
2022/10/11 00:11:32;;;;;;;15.30;9.75;;;;;;;13.21;100.00;100968.19;5077046;28;20722;-76
2022/10/11 00:13:58;;;;;;;20.48;10.40;;;;;;;13.26;100.00;100970.69;5076502;28;20247;-79
2022/10/11 00:16:25;;;;;;;13.85;9.70;;;;;;;13.30;100.00;100973.19;5077940;28;20208;-77
2022/10/11 00:18:52;;;;;;;13.85;9.18;;;;;;;13.21;100.00;100983.56;5076097;28;20200;-76
2022/10/11 00:21:19;;;;;;;15.52;9.30;;;;;;;13.17;100.00;100987.34;5077246;28;20200;-77
2022/10/11 00:23:46;;;;;;;16.65;9.85;;;;;;;13.17;100.00;100998.16;5076381;28;20224;-76
2022/10/11 00:26:12;;;;;;;18.30;11.70;;;;;;;13.08;100.00;100991.34;5079660;28;20203;-78
2022/10/11 00:28:41;;;;;;;16.15;10.15;;;;;;;13.03;100.00;100991.56;5075954;28;20218;-76
2022/10/11 00:31:09;;;;;;;13.85;9.88;;;;;;;12.95;100.00;100996.44;5079741;28;20216;-76
2022/10/11 00:33:36;;;;;;;15.05;9.27;;;;;;;12.87;100.00;101006.75;5092199;28;20235;-76
2022/10/11 00:36:03;;;;;;;17.20;10.00;;;;;;;12.79;100.00;101012.47;5090707;28;20544;-76
2022/10/11 00:38:29;;;;;;;20.27;10.07;;;;;;;12.79;100.00;101008.91;5089958;28;20211;-76
2022/10/11 00:40:56;;;;;;;12.80;9.32;;;;;;;12.83;100.00;101014.09;5092380;28;20193;-77
2022/10/11 00:43:24;;;;;;;18.38;10.48;;;;;;;12.79;100.00;101000.78;5084377;28;20304;-77
2022/10/11 00:46:35;;;;;;;16.48;10.18;;;;;;;12.83;100.00;101008.69;5077723;28;20554;-77
2022/10/11 00:49:07;;;;;;;12.35;9.45;;;;;;;12.96;100.00;101014.44;4994000;28;20238;-77
2022/10/11 00:51:41;;;;;;;17.52;10.85;;;;;;;12.97;100.00;101024.28;4994736;28;20219;-77
2022/10/11 00:54:13;;;;;;;14.60;10.27;;;;;;;13.06;100.00;101025.69;4994396;28;20244;-77
2022/10/11 00:56:40;;;;;;;14.88;10.23;;;;;;;13.07;100.00;101019.31;4996231;28;20194;-77
2022/10/11 00:59:11;;;;;;;12.60;8.90;;;;;;;13.05;100.00;101027.53;4995015;28;20213;-77
2022/10/11 01:01:37;;;;;;;17.00;10.60;;;;;;;12.93;100.00;101019.94;4995940;28;20199;-77
2022/10/11 01:04:06;;;;;;;16.85;11.50;;;;;;;12.90;100.00;101031.78;5011913;28;20215;-77
2022/10/11 01:06:33;;;;;;;17.90;12.77;;;;;;;12.86;100.00;101030.16;4994089;28;20210;-76
2022/10/11 01:09:00;;;;;;;19.52;12.15;;;;;;;12.85;100.00;101038.38;4994225;28;20216;-77
2022/10/11 01:11:29;;;;;;;17.27;10.52;;;;;;;12.82;100.00;101047.50;4993941;28;20607;-77
2022/10/11 01:14:15;;;;;;;21.38;12.75;;;;;;;12.77;100.00;101048.63;4982603;28;20266;-76
2022/10/11 01:16:50;;;;;;;19.90;12.73;;;;;;;12.70;100.00;101051.59;4973612;28;20279;-77
2022/10/11 01:19:38;;;;;;;17.38;12.10;;;;;;;12.64;100.00;101064.50;4979682;28;20238;-77
2022/10/11 01:22:19;;;;;;;18.30;12.93;;;;;;;12.66;100.00;101060.81;4994745;28;20198;-78
2022/10/11 01:25:19;;;;;;;16.83;12.25;;;;;;;12.52;100.00;101065.91;5031204;28;20652;-77
2022/10/11 01:28:00;;;;;;;18.60;12.57;;;;;;;12.51;100.00;101075.84;4974384;28;20702;-77
2022/10/11 01:30:29;;;;;;;19.15;11.13;;;;;;;12.55;100.00;101075.69;4975259;28;20199;-76
2022/10/11 01:33:06;;;;;;;13.20;10.68;;;;;;;12.49;100.00;101083.13;4975040;28;20212;-76
2022/10/11 01:35:39;;;;;;;17.50;12.60;;;;;;;12.44;100.00;101078.88;4973481;28;20214;-77
2022/10/11 01:38:11;;;;;;;17.05;11.80;;;;;;;12.37;100.00;101077.34;4973299;28;20200;-77
2022/10/11 01:40:44;;;;;;;14.73;10.90;;;;;;;12.30;100.00;101085.75;4972346;28;20219;-78
2022/10/11 01:43:12;;;;;;;14.07;11.50;;;;;;;12.34;100.00;101085.59;4973294;28;20192;-78
2022/10/11 01:45:40;;;;;;;13.50;10.90;;;;;;;12.33;100.00;101082.03;4973043;28;20219;-78
2022/10/11 01:48:09;;;;;;;14.32;9.50;;;;;;;12.38;100.00;101089.94;4974700;28;20768;-78
2022/10/11 01:50:44;;;;;;;9.85;6.95;;;;;;;12.38;100.00;101079.13;4974227;28;20204;-75
2022/10/11 01:53:37;;;;;;;8.07;5.97;;;;;;;12.45;100.00;101083.31;4972876;28;20195;-79
2022/10/11 01:56:21;;;;;;;7.18;4.85;;;;;;;12.44;100.00;101081.59;4974361;28;20231;-77
2022/10/11 01:59:02;;;;;;;8.43;4.00;;;;;;;12.41;100.00;101085.25;4975930;28;20302;-77
2022/10/11 02:01:37;;;;;;;4.97;3.63;;;;;;;12.40;100.00;101077.25;4976855;28;20208;-78
2022/10/11 02:04:12;;;;;;;6.20;3.60;;;;;;;12.43;100.00;101077.09;4999335;28;20224;-77
2022/10/11 02:06:47;;;;;;;6.53;3.63;;;;;;;12.41;100.00;101079.84;5076361;28;20654;-77
2022/10/11 02:09:20;;;;;;;10.10;3.25;;;;;;;12.37;100.00;101082.75;5076148;28;20213;-77
2022/10/11 02:11:47;;;;;;;7.93;3.30;;;;;;;12.38;100.00;101084.53;5077077;28;20199;-78
2022/10/11 02:14:18;;;;;;;6.05;3.17;;;;;;;12.29;100.00;101086.66;5076454;28;20222;-80
2022/10/11 02:16:50;;;;;;;3.80;2.85;;;;;;;12.23;100.00;101086.03;5076775;28;20193;-77
2022/10/11 02:19:21;;;;;;;8.52;2.72;;;;;;;12.25;100.00;101085.03;5076289;28;20271;-77
2022/10/11 02:21:54;;;;;;;6.13;2.90;;;;;;;12.22;100.00;101090.56;5075882;28;20216;-78
2022/10/11 02:24:27;;;;;;;14.00;3.38;;;;;;;12.13;100.00;101088.25;5079995;28;20220;-78
2022/10/11 02:26:57;;;;;;;5.55;3.17;;;;;;;12.12;100.00;101086.50;5079272;28;20185;-77
2022/10/11 02:29:26;;;;;;;7.38;3.58;;;;;;;12.07;100.00;101081.28;5078565;28;20185;-77
2022/10/11 02:31:59;;;;;;;5.55;2.88;;;;;;;12.03;100.00;101084.16;5075408;28;20200;-77
2022/10/11 02:34:30;;;;;;;8.23;2.28;;;;;;;11.99;100.00;101071.75;5075163;28;20270;-78
2022/10/11 02:37:03;;;;;;;13.38;2.45;;;;;;;11.96;100.00;101074.53;5075209;28;20623;-77
2022/10/11 02:39:39;;;;;;;4.10;2.42;;;;;;;11.94;100.00;101069.22;5073872;28;20216;-78
2022/10/11 02:42:12;;;;;;;3.95;1.98;;;;;;;11.99;100.00;101072.63;5074938;28;20194;-76
2022/10/11 02:44:43;;;;;;;4.97;2.90;;;;;;;11.88;100.00;101077.56;5074759;28;20224;-77
2022/10/11 02:47:12;;;;;;;7.78;2.50;;;;;;;11.84;100.00;101076.75;5074243;28;20537;-77
2022/10/11 02:49:39;;;;;;;8.60;2.30;;;;;;;11.86;100.00;101076.72;5073115;28;20318;-77
2022/10/11 02:52:06;;;;;;;7.97;2.70;;;;;;;11.85;100.00;101074.97;5074397;28;20200;-77
2022/10/11 02:54:33;;;;;;;5.45;2.85;;;;;;;11.78;100.00;101077.03;5076414;28;20224;-77
2022/10/11 02:56:59;;;;;;;6.15;2.33;;;;;;;11.75;100.00;101066.34;5074007;28;20215;-77
2022/10/11 02:59:26;;;;;;;6.57;2.45;;;;;;;11.74;100.00;101074.50;5073021;28;20295;-77
2022/10/11 03:01:52;;;;;;;6.65;2.15;;;;;;;11.72;100.00;101081.78;5075404;28;20203;-77
2022/10/11 03:04:20;;;;;;;7.47;2.60;;;;;;;11.64;100.00;101076.66;5072869;28;20217;-77
2022/10/11 03:06:46;;;;;;;6.80;2.85;;;;;;;11.59;100.00;101084.06;5074379;28;20200;-76
2022/10/11 03:09:13;;;;;;;6.97;2.17;;;;;;;11.61;100.00;101088.47;5073723;28;20554;-77
2022/10/11 03:11:39;;;;;;;9.05;2.65;;;;;;;11.58;100.00;101082.34;5074050;28;20204;-77
2022/10/11 03:14:06;;;;;;;4.78;1.88;;;;;;;11.57;100.00;101085.94;5074816;28;20431;-77
2022/10/11 03:16:32;;;;;;;8.93;2.30;;;;;;;11.51;100.00;101081.69;5082262;28;20197;-77
2022/10/11 03:18:59;;;;;;;4.72;1.83;;;;;;;11.50;100.00;101095.22;5089929;28;20217;-78
2022/10/11 03:21:27;;;;;;;8.30;2.30;;;;;;;11.45;100.00;101093.56;5093104;28;20244;-77
2022/10/11 03:23:53;;;;;;;6.93;2.47;;;;;;;11.42;100.00;101093.69;5090155;28;20292;-77
2022/10/11 03:26:20;;;;;;;7.55;2.42;;;;;;;11.39;100.00;101095.63;5096138;28;20187;-78
2022/10/11 03:28:46;;;;;;;10.23;2.20;;;;;;;11.38;100.00;101101.97;5094578;28;20248;-78
2022/10/11 03:31:13;;;;;;;7.22;2.30;;;;;;;11.36;100.00;101102.00;5093627;28;20213;-77
2022/10/11 03:33:39;;;;;;;6.70;2.30;;;;;;;11.32;100.00;101094.97;5073669;28;20225;-76
2022/10/11 03:36:06;;;;;;;9.07;2.40;;;;;;;11.31;100.00;101100.44;5091036;28;20272;-76
2022/10/11 03:38:34;;;;;;;8.05;2.50;;;;;;;11.27;100.00;101105.94;5087766;28;20204;-77
2022/10/11 03:41:01;;;;;;;6.00;2.33;;;;;;;11.26;100.00;101105.97;5089414;28;20256;-77
2022/10/11 03:43:27;;;;;;;4.30;2.30;;;;;;;11.29;100.00;101105.88;5091495;28;20227;-77
2022/10/11 03:45:54;;;;;;;6.00;2.85;;;;;;;11.26;100.00;101104.19;5090287;28;20288;-78
2022/10/11 03:48:20;;;;;;;5.13;1.88;;;;;;;11.19;100.00;101109.84;5090358;28;20268;-76
2022/10/11 03:50:48;;;;;;;7.13;2.10;;;;;;;11.19;100.00;101117.94;5087975;28;20200;-77
2022/10/11 03:53:14;;;;;;;7.55;2.30;;;;;;;11.18;100.00;101121.56;5081744;28;20200;-78
2022/10/11 03:55:42;;;;;;;7.05;2.28;;;;;;;11.16;100.00;101118.91;5079386;28;20638;-78
2022/10/11 03:58:09;;;;;;;9.27;2.13;;;;;;;11.11;100.00;101115.53;5079784;28;20208;-76
2022/10/11 04:00:36;;;;;;;8.93;2.42;;;;;;;11.05;100.00;101122.00;5078770;28;20193;-77
2022/10/11 04:03:03;;;;;;;12.65;2.28;;;;;;;11.04;100.00;101122.94;5077420;28;20196;-77
2022/10/11 04:05:30;;;;;;;4.75;1.85;;;;;;;11.05;100.00;101127.38;5077527;28;20216;-78
2022/10/11 04:07:57;;;;;;;8.60;2.75;;;;;;;11.05;100.00;101126.50;5077795;28;20291;-77
2022/10/11 04:10:23;;;;;;;7.38;1.80;;;;;;;11.01;100.00;101135.63;5058759;28;20211;-77
2022/10/11 04:12:51;;;;;;;5.97;2.40;;;;;;;10.96;100.00;101135.81;5061870;28;20205;-78
2022/10/11 04:15:18;;;;;;;8.40;2.00;;;;;;;11.01;100.00;101136.53;5061274;28;20218;-77
2022/10/11 04:17:44;;;;;;;7.82;2.30;;;;;;;10.95;100.00;101136.75;5061602;28;20201;-79
2022/10/11 04:20:11;;;;;;;10.32;2.75;;;;;;;10.90;100.00;101138.75;5061756;28;20660;-79
2022/10/11 04:22:38;;;;;;;6.90;1.98;;;;;;;10.83;100.00;101142.56;5090541;28;20199;-79
2022/10/11 04:25:05;;;;;;;10.60;3.10;;;;;;;10.78;100.00;101144.53;5092838;28;20224;-81
2022/10/11 04:27:32;;;;;;;8.52;2.03;;;;;;;10.71;100.00;101146.56;5090948;28;20272;-80
2022/10/11 04:30:00;;;;;;;8.50;2.53;;;;;;;10.64;100.00;101140.50;5074558;28;20207;-79
2022/10/11 04:32:27;;;;;;;10.65;2.75;;;;;;;10.70;100.00;101134.03;5089421;28;20201;-80
2022/10/11 04:34:53;;;;;;;9.35;2.33;;;;;;;10.61;100.00;101148.69;5112810;22;20330;-74
2022/10/11 04:37:20;;;;;;;14.68;2.83;;;;;;;10.52;100.00;101156.22;5098533;28;20211;-75
2022/10/11 04:39:47;;;;;;;6.15;2.90;;;;;;;10.50;100.00;101155.38;5098259;28;20196;-74
2022/10/11 04:42:13;;;;;;;5.78;2.38;;;;;;;10.48;100.00;101159.94;5099145;28;20299;-75
2022/10/11 04:44:40;;;;;;;7.05;2.47;;;;;;;10.45;100.00;101163.59;5089708;28;20228;-72
2022/10/11 04:47:07;;;;;;;9.88;2.30;;;;;;;10.41;100.00;101168.19;5078362;28;20215;-73
2022/10/11 04:49:34;;;;;;;8.57;2.63;;;;;;;10.45;100.00;101158.22;5078110;28;20196;-71
2022/10/11 04:52:00;;;;;;;7.20;2.45;;;;;;;10.40;100.00;101165.53;5079057;28;20204;-74
2022/10/11 04:54:27;;;;;;;14.68;2.20;;;;;;;10.39;100.00;101161.09;5078560;28;20221;-73
2022/10/11 04:56:53;;;;;;;11.68;2.58;;;;;;;10.41;100.00;101175.41;5078250;28;20205;-74
2022/10/11 04:59:20;;;;;;;6.43;2.60;;;;;;;10.35;100.00;101167.50;5076939;28;20201;-72
2022/10/11 05:01:46;;;;;;;8.05;3.67;;;;;;;10.33;100.00;101174.75;5062474;28;20203;-75
2022/10/11 05:04:14;;;;;;;7.13;3.20;;;;;;;10.28;100.00;101174.00;5057893;28;20225;-74
2022/10/11 05:06:41;;;;;;;6.15;2.10;;;;;;;10.35;100.00;101180.97;5061501;28;20224;-74
2022/10/11 05:09:07;;;;;;;8.27;2.75;;;;;;;10.27;100.00;101174.94;5062823;28;20678;-74
2022/10/11 05:11:34;;;;;;;13.13;3.25;;;;;;;10.29;100.00;101183.84;5062507;28;20207;-72
2022/10/11 05:14:00;;;;;;;5.25;2.35;;;;;;;10.27;100.00;101193.78;5063739;28;20241;-74
2022/10/11 05:16:27;;;;;;;6.93;2.53;;;;;;;10.21;100.00;101194.84;5075781;28;20224;-74
2022/10/11 05:18:54;;;;;;;9.13;2.70;;;;;;;10.21;100.00;101203.78;5064171;28;20269;-75
2022/10/11 05:21:24;;;;;;;11.93;2.40;;;;;;;10.15;100.00;101203.09;5076848;28;20192;-73
2022/10/11 05:23:52;;;;;;;7.80;2.30;;;;;;;10.09;100.00;101208.69;5080302;28;20674;-73
2022/10/11 05:26:20;;;;;;;7.82;2.78;;;;;;;10.07;100.00;101208.72;5080786;28;20231;-74
2022/10/11 05:28:47;;;;;;;6.82;2.35;;;;;;;10.05;100.00;101212.41;5081595;28;20201;-73
2022/10/11 05:31:14;;;;;;;9.45;2.60;;;;;;;10.00;100.00;101217.94;5080446;28;20199;-74
2022/10/11 05:33:42;;;;;;;8.90;2.80;;;;;;;10.00;100.00;101217.94;5079876;28;20204;-74
2022/10/11 05:36:09;;;;;;;12.52;2.40;;;;;;;10.03;100.00;101215.13;5078815;28;20243;-75
2022/10/11 05:38:37;;;;;;;7.53;2.53;;;;;;;10.05;100.00;101215.97;5081060;28;20208;-74
2022/10/11 05:41:05;;;;;;;9.65;2.13;;;;;;;10.02;100.00;101221.47;5086254;28;20203;-75
2022/10/11 05:43:32;;;;;;;9.50;2.78;;;;;;;10.05;100.00;101225.88;5079974;28;20214;-75
2022/10/11 05:45:59;;;;;;;9.25;2.63;;;;;;;10.04;100.00;101233.06;5079903;28;20413;-74
2022/10/11 05:48:27;;;;;;;7.72;3.40;;;;;;;10.03;100.00;101236.66;5083233;28;20231;-77
2022/10/11 05:50:59;;;;;;;13.95;3.08;;;;;;;10.05;100.00;101232.13;5079114;28;20281;-76
2022/10/11 05:53:25;;;;;;;12.13;2.88;;;;;;;9.98;100.00;101238.63;5080187;28;20181;-74
2022/10/11 05:55:53;;;;;;;8.38;2.40;;;;;;;9.98;100.00;101238.63;5078789;28;20593;-74
2022/10/11 05:58:20;;;;;;;6.57;2.35;;;;;;;9.99;100.00;101245.75;5078201;28;20224;-74
2022/10/11 06:00:46;;;;;;;7.70;2.08;;;;;;;10.01;100.00;101257.34;5076264;28;20572;-74
2022/10/11 06:03:16;;;;;;;9.40;2.70;;;;;;;10.06;100.00;101257.22;5075339;28;20201;-74
2022/10/11 06:05:43;;;;;;;8.85;2.83;;;;;;;10.13;100.00;101248.03;5076231;28;20228;-75
2022/10/11 06:08:09;;;;;;;7.88;2.92;;;;;;;10.25;100.00;101253.06;5076899;28;20208;-75
2022/10/11 06:10:37;;;;;;;10.07;2.70;;;;;;;10.36;100.00;101259.03;5076352;28;20247;-74
2022/10/11 06:13:06;;;;;;;8.52;2.90;;;;;;;10.44;100.00;101256.09;5085460;28;20287;-73
2022/10/11 06:15:33;;;;;;;7.93;2.65;;;;;;;10.67;100.00;101266.13;5090055;28;20748;-73
2022/10/11 06:18:00;;;;;;;8.60;2.67;;;;;;;10.74;100.00;101261.41;5076374;28;20659;-74
2022/10/11 06:20:26;;;;;;;7.05;2.63;;;;;;;10.93;100.00;101265.28;5076989;28;20235;-75
2022/10/11 06:22:53;;;;;;;10.15;3.00;;;;;;;11.17;100.00;101265.38;5078379;28;20196;-75
2022/10/11 06:25:19;;;;;;;7.53;2.85;;;;;;;11.32;100.00;101272.97;5074450;28;20232;-74
2022/10/11 06:27:46;;;;;;;8.65;2.95;;;;;;;11.51;100.00;101280.41;5075504;28;20211;-75
2022/10/11 06:30:14;;;;;;;8.63;2.80;;;;;;;11.71;100.00;101285.09;5075384;28;20268;-75
2022/10/11 06:32:40;;;;;;;17.45;3.35;;;;;;;12.05;100.00;101287.47;5075488;28;20235;-73
2022/10/11 06:35:08;;;;;;;7.80;3.17;;;;;;;12.03;100.00;101286.63;5074227;28;20224;-74
2022/10/11 06:37:35;;;;;;;13.13;2.70;;;;;;;12.16;100.00;101300.56;5075594;28;20203;-75
2022/10/11 06:40:01;;;;;;;7.15;2.33;;;;;;;12.47;100.00;101294.88;5076563;28;20210;-74
2022/10/11 06:42:28;;;;;;;9.02;3.55;;;;;;;12.91;100.00;101303.03;5075973;28;20692;-73
2022/10/11 06:44:54;;;;;;;11.38;3.65;;;;;;;13.30;100.00;101314.06;5075465;28;20221;-75
2022/10/11 06:47:22;;;;;;;17.77;9.52;;;;;;;13.42;100.00;101306.38;5075077;28;20209;-73
2022/10/11 06:49:49;;;;;;;14.57;3.92;;;;;;;13.45;100.00;101311.63;5074076;28;20428;-73
2022/10/11 06:52:15;;;;;;;7.70;3.10;;;;;;;14.00;100.00;101314.63;5074315;28;20208;-73
2022/10/11 06:54:42;;;;;;;13.73;7.25;;;;;;;14.04;100.00;101318.97;5075442;28;20315;-74
2022/10/11 06:57:09;;;;;;;10.32;7.03;;;;;;;14.49;100.00;101320.47;5074861;28;20196;-74
2022/10/11 06:59:35;;;;;;;7.75;3.40;;;;;;;14.81;92.74;101323.50;5075055;28;20213;-74
2022/10/11 07:02:02;;;;;;;9.80;2.70;;;;;;;15.02;91.53;101329.75;5074608;28;20207;-73
2022/10/11 07:04:32;;;;;;;7.93;2.33;;;;;;;15.74;84.77;101323.41;5073957;28;20216;-73
2022/10/11 07:06:59;;;;;;;12.88;2.72;;;;;;;16.19;75.75;101326.44;5075267;28;20240;-74
2022/10/11 07:09:25;;;;;;;6.68;2.53;;;;;;;16.45;74.46;101334.06;5079998;28;20559;-78
2022/10/11 07:11:52;;;;;;;11.85;3.17;;;;;;;16.63;72.81;101329.44;5076740;28;20634;-74
2022/10/11 07:14:18;;;;;;;7.55;2.90;;;;;;;16.90;70.35;101336.19;5074363;28;20227;-74
2022/10/11 07:16:45;;;;;;;10.65;2.13;;;;;;;17.29;65.42;101342.03;5074887;28;20197;-73
2022/10/11 07:19:11;;;;;;;7.85;2.88;;;;;;;17.56;64.50;101346.81;5074962;28;20211;-73
2022/10/11 07:21:39;;;;;;;3.55;1.95;;;;;;;18.29;61.91;101354.22;5076888;28;20208;-73
2022/10/11 07:24:06;;;;;;;7.13;2.05;;;;;;;18.50;59.33;101352.00;5078918;28;20247;-75
2022/10/11 07:26:33;;;;;;;8.00;2.13;;;;;;;19.10;56.55;101349.00;5078135;28;20302;-74
2022/10/11 07:29:00;;;;;;;10.33;2.50;;;;;;;19.29;55.47;101359.59;5078277;28;20683;-74
2022/10/11 07:31:26;;;;;;;8.87;2.70;;;;;;;19.49;54.17;101357.38;5077814;28;20822;-74
2022/10/11 07:33:53;;;;;;;9.00;2.33;;;;;;;19.36;54.33;101357.34;5078194;28;20532;-74
2022/10/11 07:36:21;;;;;;;11.37;2.63;;;;;;;19.92;52.43;101357.19;5080283;28;20411;-74
2022/10/11 07:38:50;;;;;;;8.83;2.83;;;;;;;19.95;51.56;101359.72;5077805;28;20533;-74
2022/10/11 07:41:17;;;;;;;10.00;2.43;;;;;;;20.24;50.83;101356.78;5084014;28;20805;-77
2022/10/11 07:43:45;;;;;;;11.00;1.90;;;;;;;19.87;51.50;101362.09;5082474;28;20431;-75
2022/10/11 07:46:12;;;;;;;4.17;1.80;;;;;;;20.40;50.47;101352.84;5081469;28;20482;-76
2022/10/11 07:48:39;;;;;;;4.63;1.97;;;;;;;20.98;49.23;101355.09;5080308;28;20827;-74
2022/10/11 07:51:07;;;;;;;12.07;2.40;;;;;;;21.01;49.50;101357.63;5078460;28;20473;-75
2022/10/11 07:53:38;;;;;;;9.63;2.50;;;;;;;21.37;48.07;101356.72;5077218;28;20438;-74
2022/10/11 07:56:07;;;;;;;6.17;2.30;;;;;;;21.56;47.34;101358.09;5077550;28;20441;-74
2022/10/11 07:58:33;;;;;;;5.47;1.90;;;;;;;21.91;47.21;101358.09;5077753;28;20435;-75
2022/10/11 08:01:00;;;;;;;5.93;2.10;;;;;;;22.37;46.01;101368.22;5077429;28;20453;-75
2022/10/11 08:03:27;;;;;;;9.33;2.60;;;;;;;23.00;44.12;101359.53;5077488;28;20435;-76
2022/10/11 08:05:53;;;;;;;6.20;2.00;;;;;;;23.23;43.72;101365.84;5077135;28;20509;-76
2022/10/11 08:08:20;;;;;;;10.13;2.30;;;;;;;23.17;43.70;101358.97;5076579;28;20445;-75
2022/10/11 08:10:46;;;;;;;8.63;2.20;;;;;;;23.23;43.68;101358.47;5077143;28;20442;-74
2022/10/11 08:13:14;;;;;;;8.17;3.83;;;;;;;23.79;42.51;101365.69;5076381;28;20936;-74
2022/10/11 08:15:41;;;;;;;5.83;4.10;;;;;;;23.66;41.78;101362.19;5076656;28;20462;-75
2022/10/11 08:18:07;;;;;;;5.83;2.10;;;;;;;23.20;42.95;101364.22;5076725;28;20437;-76
2022/10/11 08:20:34;;;;;;;8.50;2.87;;;;;;;23.70;41.38;101375.56;5085486;28;20491;-73
2022/10/11 08:23:00;;;;;;;5.30;1.97;;;;;;;23.37;41.78;101372.91;5085058;28;20455;-75
2022/10/11 08:25:27;;;;;;;8.77;2.70;;;;;;;23.32;41.92;101370.56;5077082;28;20829;-74
2022/10/11 08:27:53;;;;;;;6.77;2.43;;;;;;;23.07;43.12;101372.59;5078527;28;20770;-74
2022/10/11 08:30:21;;;;;;;9.87;2.53;;;;;;;23.73;41.32;101366.16;5080814;28;20443;-73
2022/10/11 08:32:48;;;;;;;9.70;2.30;;;;;;;24.52;40.23;101376.78;5082893;28;20427;-74
2022/10/11 08:35:14;;;;;;;6.90;2.50;;;;;;;25.49;38.45;101381.78;5083966;28;20533;-74
2022/10/11 08:37:41;;;;;;;4.80;2.20;;;;;;;25.16;38.23;101383.84;5081006;28;20526;-74
2022/10/11 08:40:14;;;;;;;8.50;1.97;;;;;;;25.52;38.74;101382.34;5082557;28;20442;-74
2022/10/11 08:42:45;;;;;;;6.10;2.20;;;;;;;26.44;36.95;101386.56;5081223;28;20500;-74
2022/10/11 08:45:24;;;;;;;8.97;2.90;;;;;;;26.18;36.89;101384.41;5082407;28;20458;-73
2022/10/11 08:47:56;;;;;;;8.20;2.23;;;;;;;26.40;36.50;101388.72;5082611;28;20472;-75
2022/10/11 08:50:23;;;;;;;7.37;2.57;;;;;;;26.21;36.87;101380.50;5084446;28;20434;-74
2022/10/11 08:52:56;;;;;;;6.80;2.10;;;;;;;26.05;36.70;101388.50;5080442;28;20442;-73
2022/10/11 08:55:28;;;;;;;6.53;2.20;;;;;;;26.77;36.34;101382.41;5077468;28;20455;-75
2022/10/11 08:57:56;;;;;;;5.70;2.17;;;;;;;27.10;35.40;101382.81;5078123;28;20433;-75
2022/10/11 09:00:28;;;;;;;6.47;1.90;;;;;;;27.50;35.63;101377.94;5080984;28;20442;-74
2022/10/11 09:03:04;;;;;;;5.47;2.03;;;;;;;27.72;34.88;101384.91;5080840;28;20792;-75
2022/10/11 09:05:34;;;;;;;5.37;2.37;;;;;;;27.40;34.57;101372.50;5081731;28;20490;-75
2022/10/11 09:08:07;;;;;;;6.10;2.30;;;;;;;27.15;35.05;101380.47;5079988;28;20469;-75
2022/10/11 09:10:59;;;;;;;4.20;1.80;;;;;;;26.15;36.49;101375.56;5076155;28;20442;-74
2022/10/11 09:13:44;;;;;;;5.10;2.10;;;;;;;24.76;38.40;101371.81;5060847;28;20564;-75
2022/10/11 09:16:20;;;;;;;9.70;2.00;;;;;;;25.96;37.11;101368.16;5076410;28;20443;-75
2022/10/11 09:19:05;;;;;;;5.70;2.37;;;;;;;26.20;36.34;101381.50;5077399;28;20418;-75
2022/10/11 09:21:41;;;;;;;5.00;1.97;;;;;;;26.23;36.03;101374.81;5076499;28;20424;-74
2022/10/11 09:24:22;;;;;;;7.07;2.00;;;;;;;25.99;36.34;101365.13;5076924;28;20485;-75
2022/10/11 09:26:55;;;;;;;8.60;2.40;;;;;;;25.63;37.02;101367.56;5076683;28;20466;-74
2022/10/11 09:29:35;;;;;;;8.67;3.13;;;;;;;25.54;37.22;101366.53;5076495;28;20431;-74
2022/10/11 09:32:13;;;;;;;7.60;2.57;;;;;;;25.82;36.60;101365.81;5075977;28;20792;-74
2022/10/11 09:34:40;;;;;;;6.60;2.27;;;;;;;25.44;37.27;101368.44;5075340;28;20472;-75
2022/10/11 09:37:15;;;;;;;5.87;2.17;;;;;;;25.53;37.40;101369.44;5075572;28;20465;-75
2022/10/11 09:39:47;;;;;;;5.63;2.53;;;;;;;25.46;37.11;101369.16;5074564;28;20423;-75
2022/10/11 09:42:14;;;;;;;5.73;1.90;;;;;;;25.97;36.43;101373.53;5075059;28;20938;-74
2022/10/11 09:44:46;;;;;;;4.40;2.07;;;;;;;25.94;36.32;101368.31;5074215;28;20471;-76
2022/10/11 09:47:17;;;;;;;6.77;2.03;;;;;;;26.39;35.57;101370.44;5074308;28;20462;-76
2022/10/11 09:49:48;;;;;;;7.20;1.90;;;;;;;27.36;34.21;101368.28;5073281;28;20458;-74
2022/10/11 09:52:17;;;;;;;6.20;2.17;;;;;;;28.14;33.03;101370.47;5079398;28;20501;-75
2022/10/11 09:54:45;;;;;;;7.70;2.00;;;;;;;29.27;31.47;101374.94;5074442;28;20469;-76
2022/10/11 09:57:23;;;;;;;7.03;2.27;;;;;;;28.90;31.59;101373.41;5056772;28;20526;-75
2022/10/11 10:00:20;;;;;;;7.97;2.40;;;;;;;28.67;32.35;101372.22;5074540;28;20443;-75
2022/10/11 10:02:49;;;;;;;5.80;2.37;;;;;;;28.61;31.94;101368.22;5075307;28;20795;-75
2022/10/11 10:05:19;;;;;;;6.30;1.57;;;;;;;28.95;31.69;101372.91;5075034;28;20483;-74
2022/10/11 10:08:22;;;;;;;6.73;2.20;;;;;;;30.86;30.06;101374.66;5076108;28;20558;-75
2022/10/11 10:10:58;;;;;;;6.57;1.83;;;;;;;31.26;29.00;101375.53;5074666;28;20788;-75
2022/10/11 10:13:28;;;;;;;6.07;2.03;;;;;;;30.39;29.41;101380.13;5073893;28;20443;-74
2022/10/11 10:15:58;;;;;;;4.90;1.80;;;;;;;29.85;29.80;101369.53;5074377;28;20463;-75
2022/10/11 10:18:31;;;;;;;5.53;2.07;;;;;;;29.36;30.77;101369.44;5074259;28;20829;-75
2022/10/11 10:20:59;;;;;;;4.30;1.83;;;;;;;29.93;30.30;101358.44;5075143;28;20433;-75
2022/10/11 10:23:29;;;;;;;4.73;2.00;;;;;;;29.31;30.51;101358.84;5074791;28;20442;-76
2022/10/11 10:26:12;;;;;;;7.23;1.90;;;;;;;29.25;30.90;101357.59;5073842;28;20451;-74
2022/10/11 10:28:39;;;;;;;5.03;2.30;;;;;;;29.31;30.38;101350.53;5077035;28;20435;-76
2022/10/11 10:31:20;;;;;;;6.27;2.67;;;;;;;29.85;29.97;101347.31;5079667;28;20813;-78
2022/10/11 10:33:52;;;;;;;7.70;1.67;;;;;;;29.66;30.23;101348.50;5080714;28;20423;-75
2022/10/11 10:36:23;;;;;;;4.23;1.70;;;;;;;28.48;31.04;101352.03;5086513;22;20495;-73
2022/10/11 10:38:56;;;;;;;6.37;2.03;;;;;;;28.82;30.78;101347.53;5072597;28;20423;-75
2022/10/11 10:41:22;;;;;;;7.77;2.30;;;;;;;28.79;31.62;101345.97;5073179;28;20443;-74
2022/10/11 10:43:53;;;;;;;5.17;2.57;;;;;;;28.07;32.02;101348.09;5073896;28;20450;-73
2022/10/11 10:46:37;;;;;;;4.50;1.80;;;;;;;28.48;31.89;101340.94;5075167;28;20559;-74
2022/10/11 10:49:12;;;;;;;4.33;2.40;;;;;;;30.09;29.95;101344.53;5082105;28;20509;-73
2022/10/11 10:51:51;;;;;;;8.90;2.60;;;;;;;30.50;29.11;101355.63;5079666;28;20442;-74
2022/10/11 10:54:30;;;;;;;4.63;1.63;;;;;;;30.80;28.28;101355.91;5076299;28;20425;-74
2022/10/11 10:57:01;;;;;;;4.73;2.10;;;;;;;31.84;27.37;101362.16;5077661;28;20765;-74
2022/10/11 10:59:46;;;;;;;4.40;1.80;;;;;;;31.59;27.41;101358.66;5077185;28;20422;-75
2022/10/11 11:02:17;;;;;;;5.70;1.90;;;;;;;31.78;27.07;101357.31;5077110;28;20419;-74
2022/10/11 11:04:55;;;;;;;7.20;1.83;;;;;;;31.36;27.19;101353.03;5076747;28;20465;-75
2022/10/11 11:07:30;;;;;;;6.10;1.83;;;;;;;31.69;26.87;101356.50;5076905;28;20574;-74
2022/10/11 11:10:03;;;;;;;6.50;1.57;;;;;;;31.58;26.81;101356.94;5076881;28;20919;-74
2022/10/11 11:12:44;;;;;;;4.97;2.07;;;;;;;31.03;26.87;101364.34;5076888;28;20407;-75
2022/10/11 11:15:16;;;;;;;6.93;1.93;;;;;;;31.63;26.68;101359.16;5076546;28;20470;-73
2022/10/11 11:17:59;;;;;;;6.40;2.50;;;;;;;31.55;27.26;101348.97;5076357;28;20419;-73
2022/10/11 11:20:48;;;;;;;6.93;2.17;;;;;;;30.63;27.97;101349.50;5076542;28;20468;-74
2022/10/11 11:23:22;;;;;;;4.53;1.60;;;;;;;30.16;28.79;101341.06;5076608;28;20438;-74
2022/10/11 11:25:58;;;;;;;5.60;1.90;;;;;;;30.75;27.54;101344.41;5078065;28;20454;-74
2022/10/11 11:28:44;;;;;;;5.07;1.70;;;;;;;31.21;27.09;101332.59;5083414;28;20780;-74
2022/10/11 11:31:24;;;;;;;4.70;1.90;;;;;;;32.08;26.31;101338.78;5080797;28;20423;-74